createdAt,value
2023-07-15T00:01:37.717Z,99265.09
2023-07-15T00:04:13.093Z,99265.01
2023-07-15T00:06:41.565Z,99265.85
2023-07-15T00:09:09.619Z,99267.15
2023-07-15T00:11:40.717Z,99271.84
2023-07-15T00:14:19.339Z,99269.49
2023-07-15T00:16:47.175Z,99268.67
2023-07-15T00:19:15.055Z,99272.27
2023-07-15T00:21:43.625Z,99277.14
2023-07-15T00:24:11.326Z,99280.23
2023-07-15T00:26:40.854Z,99278.23
2023-07-15T00:29:09.615Z,99282.30
2023-07-15T00:31:37.647Z,99277.96
2023-07-15T00:34:06.366Z,99280.81
2023-07-15T00:36:35.331Z,99271.42
2023-07-15T00:39:05.872Z,99273.51
2023-07-15T00:41:37.163Z,99270.19
2023-07-15T00:44:06.594Z,99272.48
2023-07-15T00:47:00.187Z,99275.38
2023-07-15T00:49:33.130Z,99280.42
2023-07-15T00:52:06.206Z,99280.92
2023-07-15T00:54:36.702Z,99282.86
2023-07-15T00:57:07.687Z,99284.01
2023-07-15T00:59:41.660Z,99284.79
2023-07-15T01:02:13.415Z,99291.70
2023-07-15T01:04:41.156Z,99294.61
2023-07-15T01:07:09.151Z,99294.21
2023-07-15T01:09:38.195Z,99295.02
2023-07-15T01:12:06.547Z,99294.78
2023-07-15T01:14:34.394Z,99296.41
2023-07-15T01:17:04.351Z,99299.26
2023-07-15T01:19:32.736Z,99298.42
2023-07-15T01:22:01.211Z,99301.35
2023-07-15T01:24:29.415Z,99300.85
2023-07-15T01:27:02.164Z,99305.53
2023-07-15T01:29:30.049Z,99302.01
2023-07-15T01:31:58.899Z,99304.27
2023-07-15T01:34:26.485Z,99307.30
2023-07-15T01:36:54.405Z,99303.30
2023-07-15T01:39:23.362Z,99304.71
2023-07-15T01:41:50.931Z,99307.39
2023-07-15T01:44:19.044Z,99308.63
2023-07-15T01:46:46.774Z,99308.35
2023-07-15T01:49:15.715Z,99308.58
2023-07-15T01:51:43.850Z,99310.92
2023-07-15T01:54:11.386Z,99311.67
2023-07-15T01:56:40.984Z,99314.73
2023-07-15T01:59:12.189Z,99322.48
2023-07-15T02:01:42.468Z,99326.02
2023-07-15T02:04:10.330Z,99326.64
2023-07-15T02:06:38.407Z,99329.64
2023-07-15T02:09:09.490Z,99330.16
2023-07-15T02:11:37.257Z,99333.02
2023-07-15T02:14:05.563Z,99332.71
2023-07-15T02:16:33.345Z,99335.46
2023-07-15T02:19:01.132Z,99341.48
2023-07-15T02:21:29.746Z,99338.17
2023-07-15T02:23:57.499Z,99338.07
2023-07-15T02:26:25.102Z,99340.57
2023-07-15T02:28:52.978Z,99340.77
2023-07-15T02:31:20.634Z,99344.27
2023-07-15T02:33:50.099Z,99340.95
2023-07-15T02:36:17.774Z,99342.92
2023-07-15T02:38:45.585Z,99343.16
2023-07-15T02:41:13.620Z,99346.71
2023-07-15T02:43:41.488Z,99346.99
2023-07-15T02:46:09.477Z,99347.74
2023-07-15T02:48:37.075Z,99348.42
2023-07-15T02:51:04.956Z,99348.26
2023-07-15T02:53:32.882Z,99349.77
2023-07-15T02:56:00.659Z,99350.60
2023-07-15T02:58:28.640Z,99354.86
2023-07-15T03:00:56.260Z,99357.33
2023-07-15T03:03:23.866Z,99358.30
2023-07-15T03:05:53.173Z,99360.44
2023-07-15T03:08:21.711Z,99364.61
2023-07-15T03:10:51.053Z,99366.84
2023-07-15T03:13:19.396Z,99366.79
2023-07-15T03:15:47.528Z,99372.32
2023-07-15T03:18:15.225Z,99369.35
2023-07-15T03:20:43.127Z,99369.18
2023-07-15T03:23:10.750Z,99369.39
2023-07-15T03:25:38.463Z,99375.50
2023-07-15T03:28:06.387Z,99384.70
2023-07-15T03:30:33.982Z,99389.91
2023-07-15T03:33:01.787Z,99393.91
2023-07-15T03:35:29.760Z,99393.22
2023-07-15T03:37:57.461Z,99384.63
2023-07-15T03:40:25.276Z,99381.69
2023-07-15T03:42:55.234Z,99373.20
2023-07-15T03:45:22.956Z,99374.78
2023-07-15T03:47:50.575Z,99369.20
2023-07-15T03:50:21.435Z,99366.81
2023-07-15T03:52:49.042Z,99367.14
2023-07-15T03:55:17.141Z,99367.23
2023-07-15T03:57:44.929Z,99371.93
2023-07-15T04:00:18.934Z,99375.31
2023-07-15T04:02:48.000Z,99377.54
2023-07-15T04:05:22.047Z,99382.27
2023-07-15T04:07:50.207Z,99385.24
2023-07-15T04:10:17.947Z,99382.66
2023-07-15T04:12:46.019Z,99386.86
2023-07-15T04:15:13.961Z,99388.54
2023-07-15T04:17:41.533Z,99391.52
2023-07-15T04:20:17.068Z,99397.70
2023-07-15T04:22:45.284Z,99394.98
2023-07-15T04:25:13.345Z,99396.72
2023-07-15T04:27:41.176Z,99403.34
2023-07-15T04:30:12.754Z,99404.61
2023-07-15T04:32:40.931Z,99405.54
2023-07-15T04:35:08.867Z,99408.40
2023-07-15T04:37:40.423Z,99415.77
2023-07-15T04:40:08.746Z,99414.69
2023-07-15T04:42:36.520Z,99417.16
2023-07-15T04:45:04.899Z,99415.66
2023-07-15T04:47:34.522Z,99415.63
2023-07-15T04:50:02.814Z,99415.52
2023-07-15T04:52:30.738Z,99416.02
2023-07-15T04:54:58.889Z,99420.06
2023-07-15T04:57:26.648Z,99424.19
2023-07-15T04:59:54.447Z,99425.56
2023-07-15T05:02:22.714Z,99424.60
2023-07-15T05:04:50.588Z,99418.35
2023-07-15T05:07:20.719Z,99423.34
2023-07-15T05:09:50.634Z,99426.91
2023-07-15T05:12:18.669Z,99424.96
2023-07-15T05:14:46.380Z,99426.62
2023-07-15T05:17:14.117Z,99432.04
2023-07-15T05:19:42.044Z,99433.09
2023-07-15T05:22:09.941Z,99433.18
2023-07-15T05:24:37.730Z,99432.95
2023-07-15T05:27:06.153Z,99436.48
2023-07-15T05:29:33.725Z,99437.09
2023-07-15T05:32:01.455Z,99439.58
2023-07-15T05:34:29.908Z,99437.17
2023-07-15T05:36:59.001Z,99437.60
2023-07-15T05:39:26.830Z,99437.95
2023-07-15T05:41:54.571Z,99435.59
2023-07-15T05:44:22.431Z,99432.84
2023-07-15T05:46:49.997Z,99435.23
2023-07-15T05:49:17.753Z,99436.66
2023-07-15T05:51:45.608Z,99437.21
2023-07-15T05:54:13.254Z,99438.20
2023-07-15T05:56:41.116Z,99436.91
2023-07-15T05:59:08.725Z,99436.44
2023-07-15T06:01:36.458Z,99436.81
2023-07-15T06:04:07.622Z,99441.91
2023-07-15T06:06:36.429Z,99444.70
2023-07-15T06:09:04.175Z,99440.12
2023-07-15T06:11:31.960Z,99442.70
2023-07-15T06:14:04.324Z,99445.30
2023-07-15T06:16:33.210Z,99440.25
2023-07-15T06:19:00.846Z,99440.55
2023-07-15T06:21:28.450Z,99443.88
2023-07-15T06:23:56.367Z,99451.48
2023-07-15T06:26:23.939Z,99451.41
2023-07-15T06:28:51.502Z,99449.65
2023-07-15T06:31:19.660Z,99448.05
2023-07-15T06:33:49.891Z,99448.67
2023-07-15T06:36:17.615Z,99449.94
2023-07-15T06:38:45.628Z,99448.56
2023-07-15T06:41:13.413Z,99451.99
2023-07-15T06:43:41.240Z,99458.71
2023-07-15T06:46:09.614Z,99454.42
2023-07-15T06:48:37.417Z,99452.71
2023-07-15T06:51:05.025Z,99451.38
2023-07-15T06:53:32.942Z,99449.74
2023-07-15T06:56:18.107Z,99450.97
2023-07-15T06:58:47.559Z,99450.14
2023-07-15T07:01:15.821Z,99449.90
2023-07-15T07:03:43.763Z,99448.75
2023-07-15T07:06:11.722Z,99449.91
2023-07-15T07:08:39.424Z,99452.67
2023-07-15T07:11:07.258Z,99452.52
2023-07-15T07:13:35.068Z,99459.25
2023-07-15T07:16:02.669Z,99456.36
2023-07-15T07:18:30.382Z,99456.02
2023-07-15T07:20:59.901Z,99457.91
2023-07-15T07:23:28.065Z,99460.61
2023-07-15T07:25:55.716Z,99463.29
2023-07-15T07:29:20.945Z,99461.32
2023-07-15T07:31:49.068Z,99461.99
2023-07-15T07:34:17.061Z,99465.38
2023-07-15T07:36:45.574Z,99468.98
2023-07-15T07:39:14.235Z,99467.13
2023-07-15T07:41:42.573Z,99470.17
2023-07-15T07:44:13.179Z,99469.19
2023-07-15T07:46:40.932Z,99468.26
2023-07-15T07:49:08.668Z,99462.37
2023-07-15T07:51:36.432Z,99466.08
2023-07-15T07:54:04.025Z,99469.25
2023-07-15T07:56:31.896Z,99472.32
2023-07-15T07:59:01.371Z,99471.36
2023-07-15T08:01:33.006Z,99472.42
2023-07-15T08:04:02.034Z,99461.91
2023-07-15T08:06:31.201Z,99474.09
2023-07-15T08:08:58.952Z,99471.30
2023-07-15T08:11:26.808Z,99473.48
2023-07-15T08:13:54.695Z,99464.45
2023-07-15T08:16:33.023Z,99470.73
2023-07-15T08:19:01.755Z,99474.99
2023-07-15T08:21:29.473Z,99475.49
2023-07-15T08:23:57.763Z,99477.93
2023-07-15T08:26:26.223Z,99479.29
2023-07-15T08:28:54.472Z,99476.93
2023-07-15T08:31:22.589Z,99481.21
2023-07-15T08:33:50.363Z,99478.84
2023-07-15T08:36:18.169Z,99478.13
2023-07-15T08:38:45.883Z,99477.67
2023-07-15T08:41:16.145Z,99469.16
2023-07-15T08:43:49.747Z,99470.71
2023-07-15T08:46:26.659Z,99472.30
2023-07-15T08:48:58.971Z,99468.16
2023-07-15T08:51:36.331Z,99462.45
2023-07-15T08:54:05.233Z,99465.46
2023-07-15T08:56:35.777Z,99462.96
2023-07-15T08:59:06.761Z,99458.42
2023-07-15T09:01:36.727Z,99456.12
2023-07-15T09:04:04.973Z,99452.59
2023-07-15T09:06:33.813Z,99451.27
2023-07-15T09:09:01.493Z,99453.52
2023-07-15T09:11:40.814Z,99447.77
2023-07-15T09:14:18.239Z,99444.42
2023-07-15T09:16:46.260Z,99455.12
2023-07-15T09:19:14.210Z,99457.37
2023-07-15T09:21:53.239Z,99457.70
2023-07-15T09:24:21.311Z,99467.83
2023-07-15T09:26:53.066Z,99468.02
2023-07-15T09:29:22.481Z,99466.39
2023-07-15T09:31:51.307Z,99477.01
2023-07-15T09:34:21.599Z,99474.34
2023-07-15T09:36:50.266Z,99471.46
2023-07-15T09:39:21.254Z,99465.26
2023-07-15T09:42:08.704Z,99472.09
2023-07-15T09:44:41.936Z,99480.63
2023-07-15T09:47:09.983Z,99476.86
2023-07-15T09:49:38.074Z,99483.06
2023-07-15T09:52:07.250Z,99479.61
2023-07-15T09:54:37.316Z,99475.06
2023-07-15T09:57:12.107Z,99469.61
2023-07-15T09:59:50.045Z,99480.02
2023-07-15T10:02:29.983Z,99478.66
2023-07-15T10:05:04.814Z,99475.11
2023-07-15T10:07:33.848Z,99478.51
2023-07-15T10:10:01.927Z,99472.86
2023-07-15T10:12:31.070Z,99482.70
2023-07-15T10:14:59.468Z,99474.96
2023-07-15T10:17:35.416Z,99478.91
2023-07-15T10:20:20.536Z,99473.95
2023-07-15T10:22:50.637Z,99466.69
2023-07-15T10:25:19.861Z,99465.64
2023-07-15T10:27:47.645Z,99463.90
2023-07-15T10:30:20.006Z,99461.03
2023-07-15T10:33:23.751Z,99467.23
2023-07-15T10:35:53.695Z,99466.68
2023-07-15T10:38:29.255Z,99461.27
2023-07-15T10:41:05.940Z,99459.58
2023-07-15T10:43:37.852Z,99451.27
2023-07-15T10:46:07.856Z,99450.09
2023-07-15T10:48:36.679Z,99454.45
2023-07-15T10:51:09.365Z,99455.30
2023-07-15T10:53:37.917Z,99453.47
2023-07-15T10:56:11.502Z,99452.33
2023-07-15T10:58:41.765Z,99449.25
2023-07-15T11:01:11.808Z,99453.62
2023-07-15T11:03:43.141Z,99453.58
2023-07-15T11:06:11.996Z,99451.21
2023-07-15T11:08:41.438Z,99452.73
2023-07-15T11:11:12.056Z,99445.55
2023-07-15T11:13:42.200Z,99434.22
2023-07-15T11:16:10.119Z,99437.52
2023-07-15T11:18:38.430Z,99447.40
2023-07-15T11:21:06.555Z,99448.06
2023-07-15T11:23:34.909Z,99446.04
2023-07-15T11:26:10.489Z,99450.88
2023-07-15T11:28:49.895Z,99454.08
2023-07-15T11:33:05.445Z,99451.70
2023-07-15T11:35:34.726Z,99449.05
2023-07-15T11:38:11.873Z,99449.80
2023-07-15T11:41:00.860Z,99441.93
2023-07-15T11:43:30.293Z,99440.35
2023-07-15T11:45:59.386Z,99434.25
2023-07-15T11:48:35.127Z,99437.12
2023-07-15T11:51:08.060Z,99441.02
2023-07-15T11:53:38.393Z,99443.93
2023-07-15T11:56:09.772Z,99443.04
2023-07-15T11:58:57.638Z,99437.36
2023-07-15T12:01:27.057Z,99445.79
2023-07-15T12:03:55.577Z,99443.30
2023-07-15T12:06:26.237Z,99434.25
2023-07-15T12:09:10.861Z,99437.90
2023-07-15T12:11:39.834Z,99432.70
2023-07-15T12:14:11.442Z,99429.83
2023-07-15T12:16:40.404Z,99427.88
2023-07-15T12:19:18.997Z,99425.39
2023-07-15T12:21:46.852Z,99427.11
2023-07-15T12:24:14.567Z,99429.48
2023-07-15T12:26:42.264Z,99421.34
2023-07-15T12:29:10.539Z,99425.66
2023-07-15T12:31:38.326Z,99419.09
2023-07-15T12:34:06.015Z,99419.88
2023-07-15T12:36:33.694Z,99416.02
2023-07-15T12:39:01.470Z,99416.70
2023-07-15T12:41:29.277Z,99413.48
2023-07-15T12:43:56.937Z,99414.71
2023-07-15T12:46:24.693Z,99421.80
2023-07-15T12:48:52.874Z,99421.20
2023-07-15T12:51:20.805Z,99417.91
2023-07-15T12:53:48.709Z,99421.03
2023-07-15T12:56:16.762Z,99424.09
2023-07-15T12:58:44.544Z,99419.40
2023-07-15T13:01:12.314Z,99421.89
2023-07-15T13:03:40.143Z,99416.02
2023-07-15T13:06:07.868Z,99415.48
2023-07-15T13:08:38.413Z,99417.51
2023-07-15T13:11:07.336Z,99414.61
2023-07-15T13:13:35.000Z,99414.48
2023-07-15T13:16:03.076Z,99406.66
2023-07-15T13:18:30.711Z,99407.98
2023-07-15T13:20:58.353Z,99415.20
2023-07-15T13:23:26.702Z,99418.55
2023-07-15T13:25:56.454Z,99407.79
2023-07-15T13:28:24.276Z,99412.85
2023-07-15T13:30:52.174Z,99416.79
2023-07-15T13:33:19.768Z,99419.46
2023-07-15T13:35:48.615Z,99412.66
2023-07-15T13:38:16.529Z,99404.39
2023-07-15T13:40:44.120Z,99404.45
2023-07-15T13:43:11.677Z,99401.77
2023-07-15T13:45:39.707Z,99396.94
2023-07-15T13:48:07.838Z,99400.79
2023-07-15T13:50:35.454Z,99401.84
2023-07-15T13:53:03.418Z,99401.17
2023-07-15T13:55:31.014Z,99404.66
2023-07-15T13:57:58.795Z,99406.34
2023-07-15T14:00:26.826Z,99402.80
2023-07-15T14:02:54.387Z,99402.88
2023-07-15T14:05:22.102Z,99400.91
2023-07-15T14:07:52.112Z,99393.89
2023-07-15T14:10:19.720Z,99397.70
2023-07-15T14:12:47.364Z,99391.73
2023-07-15T14:15:15.360Z,99395.38
2023-07-15T14:17:42.957Z,99387.48
2023-07-15T14:20:11.008Z,99390.36
2023-07-15T14:22:48.456Z,99383.62
2023-07-15T14:25:19.434Z,99387.56
2023-07-15T14:27:47.587Z,99388.20
2023-07-15T14:30:15.575Z,99388.63
2023-07-15T14:32:43.206Z,99386.00
2023-07-15T14:35:11.194Z,99389.26
2023-07-15T14:37:38.812Z,99386.54
2023-07-15T14:40:07.813Z,99389.44
2023-07-15T14:42:35.619Z,99394.80
2023-07-15T14:45:03.344Z,99390.58
2023-07-15T14:47:34.683Z,99386.96
2023-07-15T14:50:02.885Z,99394.17
2023-07-15T14:52:30.595Z,99394.27
2023-07-15T14:54:58.289Z,99388.13
2023-07-15T14:57:26.236Z,99393.74
2023-07-15T14:59:53.799Z,99385.54
2023-07-15T15:02:21.628Z,99379.09
2023-07-15T15:04:49.754Z,99382.96
2023-07-15T15:07:17.376Z,99382.63
2023-07-15T15:09:45.021Z,99383.69
2023-07-15T15:12:12.933Z,99380.30
2023-07-15T15:14:40.519Z,99380.77
2023-07-15T15:17:08.826Z,99381.02
2023-07-15T15:19:36.797Z,99369.31
2023-07-15T15:22:04.623Z,99362.66
2023-07-15T15:24:32.240Z,99376.63
2023-07-15T15:27:01.043Z,99386.05
2023-07-15T15:29:28.702Z,99390.20
2023-07-15T15:31:56.969Z,99386.86
2023-07-15T15:34:25.226Z,99390.30
2023-07-15T15:36:52.936Z,99395.14
2023-07-15T15:39:20.499Z,99396.82
2023-07-15T15:41:48.848Z,99394.67
2023-07-15T15:44:16.508Z,99394.89
2023-07-15T15:46:44.714Z,99403.98
2023-07-15T15:49:12.652Z,99398.99
2023-07-15T15:51:40.221Z,99397.14
2023-07-15T15:54:13.686Z,99397.05
2023-07-15T15:56:47.464Z,99402.05
2023-07-15T15:59:52.771Z,99396.21
2023-07-15T16:02:21.359Z,99392.09
2023-07-15T16:05:28.248Z,99397.08
2023-07-15T16:07:56.921Z,99400.90
2023-07-15T16:10:25.069Z,99395.45
2023-07-15T16:12:53.515Z,99402.80
2023-07-15T16:15:24.284Z,99403.48
2023-07-15T16:17:52.310Z,99403.13
2023-07-15T16:20:20.755Z,99406.89
2023-07-15T16:22:48.875Z,99404.98
2023-07-15T16:25:16.936Z,99408.48
2023-07-15T16:27:46.048Z,99409.61
2023-07-15T16:30:13.885Z,99408.33
2023-07-15T16:32:41.466Z,99417.98
2023-07-15T16:35:09.732Z,99422.84
2023-07-15T16:37:37.597Z,99425.59
2023-07-15T16:40:05.882Z,99429.19
2023-07-15T16:42:33.704Z,99430.30
2023-07-15T16:45:01.322Z,99431.96
2023-07-15T16:47:28.930Z,99426.60
2023-07-15T16:49:56.771Z,99427.39
2023-07-15T16:52:24.436Z,99428.70
2023-07-15T16:54:52.127Z,99430.45
2023-07-15T16:57:19.991Z,99428.38
2023-07-15T16:59:47.732Z,99430.38
2023-07-15T17:02:15.672Z,99434.05
2023-07-15T17:04:43.521Z,99434.66
2023-07-15T17:07:11.297Z,99441.02
2023-07-15T17:09:38.888Z,99439.11
2023-07-15T17:12:13.213Z,99440.67
2023-07-15T17:14:41.144Z,99440.79
2023-07-15T17:17:09.077Z,99446.64
2023-07-15T17:19:36.820Z,99444.59
2023-07-15T17:22:04.562Z,99446.41
2023-07-15T17:24:32.182Z,99445.48
2023-07-15T17:26:59.889Z,99449.09
2023-07-15T17:29:27.698Z,99447.02
2023-07-15T17:31:55.649Z,99450.30
2023-07-15T17:34:23.841Z,99447.67
2023-07-15T17:36:51.644Z,99453.02
2023-07-15T17:39:19.434Z,99451.39
2023-07-15T17:41:46.999Z,99454.83
2023-07-15T17:44:14.791Z,99456.08
2023-07-15T17:46:42.509Z,99459.36
2023-07-15T17:49:10.096Z,99461.80
2023-07-15T17:51:37.866Z,99464.09
2023-07-15T17:54:05.509Z,99471.23
2023-07-15T17:56:33.137Z,99470.62
2023-07-15T17:59:00.857Z,99469.73
2023-07-15T18:01:28.503Z,99474.34
2023-07-15T18:03:56.106Z,99474.64
2023-07-15T18:06:23.977Z,99474.95
2023-07-15T18:08:51.704Z,99473.85
2023-07-15T18:11:19.285Z,99477.27
2023-07-15T18:13:47.087Z,99480.55
2023-07-15T18:16:14.890Z,99485.14
2023-07-15T18:18:42.517Z,99485.35
2023-07-15T18:21:10.273Z,99486.73
2023-07-15T18:23:41.204Z,99489.86
2023-07-15T18:26:08.805Z,99489.68
2023-07-15T18:28:37.400Z,99490.73
2023-07-15T18:31:05.342Z,99494.42
2023-07-15T18:33:33.275Z,99496.61
2023-07-15T18:36:01.250Z,99497.23
2023-07-15T18:38:29.009Z,99497.50
2023-07-15T18:40:56.894Z,99497.27
2023-07-15T18:43:24.823Z,99499.81
2023-07-15T18:45:52.475Z,99504.82
2023-07-15T18:48:20.126Z,99503.20
2023-07-15T18:50:48.517Z,99508.23
2023-07-15T18:53:16.270Z,99513.35
2023-07-15T18:55:43.997Z,99518.74
2023-07-15T18:58:11.741Z,99517.16
2023-07-15T19:00:39.471Z,99518.77
2023-07-15T19:03:07.209Z,99515.21
2023-07-15T19:05:35.295Z,99519.59
2023-07-15T19:08:03.058Z,99523.92
2023-07-15T19:10:30.796Z,99522.17
2023-07-15T19:12:58.430Z,99523.70
2023-07-15T19:15:26.344Z,99523.55
2023-07-15T19:17:53.966Z,99524.60
2023-07-15T19:20:22.299Z,99522.48
2023-07-15T19:22:50.173Z,99520.46
2023-07-15T19:25:18.747Z,99522.09
2023-07-15T19:27:46.569Z,99526.51
2023-07-15T19:30:14.445Z,99529.02
2023-07-15T19:32:42.049Z,99536.39
2023-07-15T19:35:09.800Z,99540.15
2023-07-15T19:37:37.569Z,99541.05
2023-07-15T19:40:05.932Z,99544.37
2023-07-15T19:42:33.949Z,99545.22
2023-07-15T19:45:01.769Z,99545.35
2023-07-15T19:47:29.326Z,99547.88
2023-07-15T19:49:57.062Z,99550.09
2023-07-15T19:52:24.847Z,99551.50
2023-07-15T19:54:52.442Z,99549.07
2023-07-15T19:57:20.159Z,99551.64
2023-07-15T19:59:47.936Z,99553.31
2023-07-15T20:02:15.661Z,99550.80
2023-07-15T20:04:43.752Z,99554.13
2023-07-15T20:07:11.376Z,99554.64
2023-07-15T20:09:38.966Z,99554.64
2023-07-15T20:12:07.430Z,99554.61
2023-07-15T20:14:35.167Z,99558.97
2023-07-15T20:17:02.789Z,99557.48
2023-07-15T20:19:31.425Z,99556.36
2023-07-15T20:21:59.522Z,99559.92
2023-07-15T20:24:27.228Z,99559.61
2023-07-15T20:26:55.288Z,99561.40
2023-07-15T20:29:23.281Z,99561.36
2023-07-15T20:31:50.915Z,99563.95
2023-07-15T20:34:18.823Z,99558.39
2023-07-15T20:36:46.451Z,99556.66
2023-07-15T20:39:15.193Z,99560.52
2023-07-15T20:41:43.454Z,99557.52
2023-07-15T20:44:11.292Z,99560.58
2023-07-15T20:46:39.195Z,99560.52
2023-07-15T20:49:06.992Z,99561.52
2023-07-15T20:51:34.816Z,99556.64
2023-07-15T20:54:02.435Z,99554.48
2023-07-15T20:56:30.283Z,99557.20
2023-07-15T20:58:58.305Z,99557.86
2023-07-15T21:01:26.015Z,99556.38
2023-07-15T21:03:54.016Z,99555.00
2023-07-15T21:06:21.912Z,99553.64
2023-07-15T21:08:49.626Z,99557.09
2023-07-15T21:11:19.153Z,99553.77
2023-07-15T21:13:47.109Z,99553.51
2023-07-15T21:16:17.841Z,99555.51
2023-07-15T21:18:47.566Z,99555.23
2023-07-15T21:21:15.818Z,99553.08
2023-07-15T21:23:44.104Z,99552.12
2023-07-15T21:26:12.404Z,99556.06
2023-07-15T21:28:41.614Z,99555.44
2023-07-15T21:31:09.658Z,99558.16
2023-07-15T21:33:37.777Z,99557.00
2023-07-15T21:36:05.691Z,99552.38
2023-07-15T21:38:33.588Z,99553.87
2023-07-15T21:41:01.259Z,99552.10
2023-07-15T21:43:29.727Z,99552.70
2023-07-15T21:45:57.856Z,99555.63
2023-07-15T21:48:25.629Z,99557.44
2023-07-15T21:50:53.558Z,99560.16
2023-07-15T21:53:21.375Z,99558.48
2023-07-15T21:55:48.999Z,99557.39
2023-07-15T21:58:17.354Z,99557.75
2023-07-15T22:00:44.999Z,99560.05
2023-07-15T22:03:13.038Z,99556.25
2023-07-15T22:05:47.197Z,99560.48
2023-07-15T22:08:16.417Z,99559.17
2023-07-15T22:10:44.107Z,99558.59
2023-07-15T22:13:11.727Z,99560.98
2023-07-15T22:15:39.607Z,99562.14
2023-07-15T22:18:07.481Z,99563.00
2023-07-15T22:20:35.123Z,99566.73
2023-07-15T22:23:03.118Z,99565.81
2023-07-15T22:25:31.150Z,99567.16
2023-07-15T22:27:59.312Z,99567.20
2023-07-15T22:30:27.534Z,99575.67
2023-07-15T22:32:55.390Z,99572.79
2023-07-15T22:35:23.278Z,99574.49
2023-07-15T22:37:51.014Z,99574.02
2023-07-15T22:40:18.648Z,99573.92
2023-07-15T22:42:46.457Z,99578.95
2023-07-15T22:45:14.763Z,99583.35
2023-07-15T22:47:42.419Z,99581.53
2023-07-15T22:50:10.293Z,99576.39
2023-07-15T22:52:38.810Z,99578.02
2023-07-15T22:55:09.548Z,99577.91
2023-07-15T22:57:37.232Z,99572.89
2023-07-15T23:00:06.110Z,99574.86
2023-07-15T23:02:34.048Z,99572.40
2023-07-15T23:05:03.155Z,99570.19
2023-07-15T23:07:30.859Z,99572.55
2023-07-15T23:09:58.442Z,99568.02
2023-07-15T23:12:26.193Z,99568.50
2023-07-15T23:14:53.762Z,99570.73
2023-07-15T23:17:22.699Z,99572.46
2023-07-15T23:19:50.513Z,99572.46
2023-07-15T23:22:18.250Z,99571.44
2023-07-15T23:24:45.915Z,99572.48
2023-07-15T23:27:15.631Z,99569.54
2023-07-15T23:29:43.274Z,99569.44
2023-07-15T23:32:11.226Z,99568.02
2023-07-15T23:34:39.275Z,99567.83
2023-07-15T23:37:06.933Z,99567.23
2023-07-15T23:39:34.619Z,99565.94
2023-07-15T23:42:02.483Z,99565.99
2023-07-15T23:44:30.133Z,99567.52
2023-07-15T23:46:57.916Z,99566.76
2023-07-15T23:49:25.716Z,99563.45
2023-07-15T23:51:53.345Z,99564.89
2023-07-15T23:54:21.480Z,99562.16
2023-07-15T23:56:49.292Z,99563.66
2023-07-15T23:59:17.558Z,99561.44
